Main page
Satellite images 15-day forecastsClimateMarine weather Cyclones Lightning AirportsFAQ Newsletter About
Weather : Europe Africa North America South America Asia Australia-Oceania Others
Languages Contact

Çorlu, Turkey

latitude: 41-08N, longitude: 027-55E, elevation: 173 m


METAR: LTBU 181920Z 35008KT 9999 SCT030 BKN090 17/15 Q1020
short-TAF: out of date (34859 hours)
long-TAF: LTBU 181640Z 1818/1918 01010KT 9999 SCT030 BKN100 TEMPO 1818/1822 4000 SHRA FEW020CB BKN025

Time: 22:42 (19:42 UTC)

Current weather observation

The report was made 22 minutes ago, at 19:20 UTC  
Wind 08 kt from the North
Temperature 17°C
Humidity 88%
Pressure 1020 hPa
Visibility 10 km or more
Scattered clouds at a height of 3000 ft
Broken clouds at a height of 9000 ft

Change units

Forecast

The report was made 2 hours and 39 minutes ago, at 17:03 UTC  
Forecast valid from 18 at 18 UTC to 19 at 18 UTC
Wind 10 kt from the North
Visibility 10 km or more
Scattered clouds at a height of 3000 ft
Broken clouds at a height of 10000 ft
Temporary
from 18 at 18 UTC to 18 at 22 UTC
Visibility 4000 m
Few clouds at a height of 2000 ft , Cumulonimbus.
Broken clouds at a height of 2500 ft
rain showers
The information on this site is subject to a disclaimer
Weather : Europe Africa North America South America Asia Australia-Oceania Others
Satellite images 15-day forecastsClimateMarine weather Cyclones Lightning AirportsFAQ Languages Contact Newsletter About